createdAt,value
2022-10-28T00:00:00.661Z,12.77
2022-10-28T00:00:32.366Z,12.77
2022-10-28T00:01:05.293Z,12.77
2022-10-28T00:01:36.767Z,12.77
2022-10-28T00:02:08.254Z,12.72
2022-10-28T00:02:40.563Z,12.72
2022-10-28T00:03:03.273Z,12.72
2022-10-28T00:03:26.265Z,12.72
2022-10-28T00:04:00.334Z,12.72
2022-10-28T00:04:32.784Z,12.72
2022-10-28T00:05:04.715Z,12.72
2022-10-28T00:05:36.350Z,12.72
2022-10-28T00:06:08.234Z,12.72
2022-10-28T00:06:40.562Z,12.72
2022-10-28T00:07:03.220Z,12.72
2022-10-28T00:07:25.776Z,12.72
2022-10-28T00:08:01.033Z,12.72
2022-10-28T00:08:32.350Z,12.72
2022-10-28T00:09:08.350Z,12.72
2022-10-28T00:09:36.157Z,12.77
2022-10-28T00:10:08.855Z,12.72
2022-10-28T00:10:40.627Z,12.77
2022-10-28T00:11:03.337Z,12.77
2022-10-28T00:11:27.313Z,12.77
2022-10-28T00:12:00.182Z,12.77
2022-10-28T00:12:32.706Z,12.77
2022-10-28T00:13:04.186Z,12.77
2022-10-28T00:13:36.911Z,12.88
2022-10-28T00:14:08.137Z,12.88
2022-10-28T00:14:40.213Z,12.88
2022-10-28T00:15:03.283Z,12.88
2022-10-28T00:15:25.777Z,12.88
2022-10-28T00:16:00.989Z,12.88
2022-10-28T00:16:33.347Z,12.88
2022-10-28T00:17:04.215Z,12.88
2022-10-28T00:17:36.254Z,12.88
2022-10-28T00:18:08.265Z,12.88
2022-10-28T00:18:40.278Z,12.88
2022-10-28T00:19:03.087Z,12.88
2022-10-28T00:19:25.847Z,12.88
2022-10-28T00:20:00.268Z,12.88
2022-10-28T00:20:32.406Z,12.88
2022-10-28T00:21:04.296Z,12.88
2022-10-28T00:21:36.372Z,12.88
2022-10-28T00:22:08.476Z,12.88
2022-10-28T00:22:41.227Z,12.88
2022-10-28T00:23:03.822Z,12.88
2022-10-28T00:23:26.319Z,12.88
2022-10-28T00:24:00.678Z,12.88
2022-10-28T00:24:32.148Z,13.00
2022-10-28T00:25:04.817Z,13.00
2022-10-28T00:25:36.199Z,13.00
2022-10-28T00:26:09.422Z,13.00
2022-10-28T00:26:41.399Z,13.00
2022-10-28T00:27:04.193Z,13.00
2022-10-28T00:27:26.685Z,13.00
2022-10-28T00:28:00.263Z,13.00
2022-10-28T00:28:32.148Z,13.00
2022-10-28T00:29:04.190Z,12.88
2022-10-28T00:29:36.971Z,12.88
2022-10-28T00:30:08.480Z,12.88
2022-10-28T00:30:41.051Z,12.88
2022-10-28T00:31:03.820Z,12.88
2022-10-28T00:31:26.256Z,12.88
2022-10-28T00:32:00.232Z,12.88
2022-10-28T00:32:32.215Z,12.77
2022-10-28T00:33:05.708Z,12.77
2022-10-28T00:33:36.652Z,12.77
2022-10-28T00:34:09.184Z,12.77
2022-10-28T00:34:40.204Z,12.72
2022-10-28T00:35:02.920Z,12.77
2022-10-28T00:35:25.293Z,12.77
2022-10-28T00:36:04.273Z,12.72
2022-10-28T00:36:32.193Z,12.72
2022-10-28T00:37:04.338Z,12.72
2022-10-28T00:37:36.185Z,12.77
2022-10-28T00:38:08.461Z,12.77
2022-10-28T00:38:41.013Z,12.77
2022-10-28T00:39:03.903Z,12.77
2022-10-28T00:39:26.100Z,12.77
2022-10-28T00:40:00.378Z,12.88
2022-10-28T00:40:32.492Z,12.88
2022-10-28T00:41:04.430Z,12.88
2022-10-28T00:41:36.242Z,12.88
2022-10-28T00:42:08.828Z,12.88
2022-10-28T00:42:40.251Z,12.88
2022-10-28T00:43:02.822Z,12.88
2022-10-28T00:44:00.133Z,12.88
2022-10-28T00:44:33.098Z,12.88
2022-10-28T00:45:04.503Z,12.88
2022-10-28T00:45:36.187Z,12.88
2022-10-28T00:46:08.200Z,12.88
2022-10-28T00:46:42.345Z,12.88
2022-10-28T00:47:03.805Z,12.88
2022-10-28T00:47:26.101Z,12.88
2022-10-28T00:48:00.893Z,12.88
2022-10-28T00:48:32.253Z,12.88
2022-10-28T00:49:05.960Z,12.88
2022-10-28T00:49:36.326Z,12.88
2022-10-28T00:50:08.543Z,12.88
2022-10-28T00:50:40.225Z,12.88
2022-10-28T00:51:02.957Z,12.88
2022-10-28T00:51:25.481Z,12.88
2022-10-28T00:52:00.271Z,12.88
2022-10-28T00:52:32.582Z,12.88
2022-10-28T00:53:04.215Z,13.00
2022-10-28T00:53:36.579Z,13.00
2022-10-28T00:54:08.145Z,13.00
2022-10-28T00:54:40.709Z,13.00
2022-10-28T00:55:03.323Z,13.00
2022-10-28T00:55:25.998Z,13.00
2022-10-28T00:56:00.741Z,13.00
2022-10-28T00:56:32.331Z,13.00
2022-10-28T00:57:05.155Z,13.00
2022-10-28T00:57:36.222Z,13.00
2022-10-28T00:58:13.826Z,13.00
2022-10-28T00:58:40.344Z,13.00
2022-10-28T00:59:03.039Z,13.00
2022-10-28T00:59:25.726Z,13.11
2022-10-28T01:00:00.195Z,13.11
2022-10-28T01:00:32.316Z,13.11
2022-10-28T01:01:04.418Z,13.11
2022-10-28T01:01:36.684Z,13.11
2022-10-28T01:02:08.137Z,13.11
2022-10-28T01:02:40.395Z,13.11
2022-10-28T01:03:03.100Z,13.11
2022-10-28T01:03:25.416Z,13.22
2022-10-28T01:04:00.221Z,13.22
2022-10-28T01:04:32.426Z,13.22
2022-10-28T01:05:04.165Z,13.22
2022-10-28T01:05:36.172Z,13.22
2022-10-28T01:06:08.147Z,13.22
2022-10-28T01:06:40.154Z,13.27
2022-10-28T01:07:02.933Z,13.27
2022-10-28T01:07:25.857Z,13.27
2022-10-28T01:08:00.160Z,13.27
2022-10-28T01:08:32.113Z,13.27
2022-10-28T01:09:04.070Z,13.27
2022-10-28T01:09:36.622Z,13.27
2022-10-28T01:10:08.187Z,13.27
2022-10-28T01:10:40.150Z,13.27
2022-10-28T01:11:02.775Z,13.27
2022-10-28T01:11:29.273Z,13.27
2022-10-28T01:12:00.159Z,13.27
2022-10-28T01:12:32.090Z,13.27
2022-10-28T01:13:04.270Z,13.27
2022-10-28T01:13:37.337Z,13.27
2022-10-28T01:14:08.432Z,13.22
2022-10-28T01:14:40.077Z,13.38
2022-10-28T01:15:02.777Z,13.27
2022-10-28T01:15:25.053Z,13.27
2022-10-28T01:16:00.228Z,13.27
2022-10-28T01:16:32.157Z,13.27
2022-10-28T01:17:04.224Z,13.27
2022-10-28T01:17:36.366Z,13.27
2022-10-28T01:18:08.097Z,13.27
2022-10-28T01:18:40.378Z,13.27
2022-10-28T01:19:03.012Z,13.27
2022-10-28T01:19:25.543Z,13.22
2022-10-28T01:20:02.102Z,13.22
2022-10-28T01:20:36.129Z,13.22
2022-10-28T01:21:04.596Z,13.22
2022-10-28T01:21:36.273Z,13.22
2022-10-28T01:22:09.274Z,13.27
2022-10-28T01:22:40.221Z,13.27
2022-10-28T01:23:02.891Z,13.27
2022-10-28T01:23:25.949Z,13.27
2022-10-28T01:24:00.156Z,13.27
2022-10-28T01:24:32.175Z,13.38
2022-10-28T01:25:04.783Z,13.27
2022-10-28T01:25:36.552Z,13.27
2022-10-28T01:26:08.244Z,13.27
2022-10-28T01:26:40.162Z,13.27
2022-10-28T01:27:02.645Z,13.27
2022-10-28T01:27:24.903Z,13.38
2022-10-28T01:28:00.287Z,13.27
2022-10-28T01:28:32.034Z,13.27
2022-10-28T01:29:04.681Z,13.27
2022-10-28T01:29:37.162Z,13.27
2022-10-28T01:30:08.989Z,13.27
2022-10-28T01:30:40.450Z,13.27
2022-10-28T01:31:03.193Z,13.27
2022-10-28T01:31:25.990Z,13.27
2022-10-28T01:32:00.297Z,13.27
2022-10-28T01:32:32.561Z,13.27
2022-10-28T01:33:04.185Z,13.27
2022-10-28T01:33:36.266Z,13.27
2022-10-28T01:34:08.207Z,13.27
2022-10-28T01:34:40.221Z,13.27
2022-10-28T01:35:02.946Z,13.27
2022-10-28T01:35:25.341Z,13.27
2022-10-28T01:36:06.959Z,13.27
2022-10-28T01:36:29.131Z,13.27
2022-10-28T01:37:04.446Z,13.27
2022-10-28T01:37:36.514Z,13.27
2022-10-28T01:38:08.140Z,13.27
2022-10-28T01:38:40.260Z,13.27
2022-10-28T01:39:03.347Z,13.27
2022-10-28T01:39:25.563Z,13.27
2022-10-28T01:40:00.168Z,13.27
2022-10-28T01:40:32.228Z,13.27
2022-10-28T01:41:04.322Z,13.38
2022-10-28T01:41:36.317Z,13.38
2022-10-28T01:42:08.310Z,13.38
2022-10-28T01:42:40.078Z,13.38
2022-10-28T01:43:03.055Z,13.38
2022-10-28T01:43:25.472Z,13.38
2022-10-28T01:44:00.290Z,13.50
2022-10-28T01:44:32.116Z,13.50
2022-10-28T01:45:04.338Z,13.50
2022-10-28T01:45:36.108Z,13.50
2022-10-28T01:46:08.156Z,13.50
2022-10-28T01:46:41.705Z,13.50
2022-10-28T01:47:02.642Z,13.61
2022-10-28T01:47:25.076Z,13.38
2022-10-28T01:48:00.329Z,13.38
2022-10-28T01:48:32.255Z,13.38
2022-10-28T01:49:04.119Z,13.38
2022-10-28T01:49:36.281Z,13.38
2022-10-28T01:50:08.100Z,13.38
2022-10-28T01:50:40.142Z,13.38
2022-10-28T01:51:02.914Z,13.38
2022-10-28T01:51:25.277Z,13.38
2022-10-28T01:52:00.143Z,13.38
2022-10-28T01:52:32.635Z,13.38
2022-10-28T01:53:04.437Z,13.38
2022-10-28T01:53:36.322Z,13.38
2022-10-28T01:54:08.025Z,13.38
2022-10-28T01:54:40.268Z,13.38
2022-10-28T01:55:02.930Z,13.38
2022-10-28T01:55:25.324Z,13.38
2022-10-28T01:56:00.124Z,13.38
2022-10-28T01:56:32.039Z,13.38
2022-10-28T01:57:04.108Z,13.38
2022-10-28T01:57:36.144Z,13.38
2022-10-28T01:58:08.088Z,13.38
2022-10-28T01:58:40.240Z,13.38
2022-10-28T01:59:03.664Z,13.38
2022-10-28T01:59:26.068Z,13.38
2022-10-28T02:00:00.125Z,13.38
2022-10-28T02:00:32.156Z,13.27
2022-10-28T02:01:04.196Z,13.27
2022-10-28T02:01:36.437Z,13.27
2022-10-28T02:02:08.257Z,13.27
2022-10-28T02:02:40.036Z,13.38
2022-10-28T02:03:02.818Z,13.38
2022-10-28T02:03:25.425Z,13.27
2022-10-28T02:04:00.295Z,13.27
2022-10-28T02:04:32.145Z,13.27
2022-10-28T02:05:04.084Z,13.27
2022-10-28T02:05:36.417Z,13.27
2022-10-28T02:06:08.253Z,13.27
2022-10-28T02:06:39.969Z,13.27
2022-10-28T02:07:03.153Z,13.27
2022-10-28T02:07:25.298Z,13.27
2022-10-28T02:08:00.337Z,13.27
2022-10-28T02:08:32.018Z,13.27
2022-10-28T02:09:04.196Z,13.27
2022-10-28T02:09:36.143Z,13.38
2022-10-28T02:10:08.131Z,13.38
2022-10-28T02:10:40.119Z,13.38
2022-10-28T02:11:02.909Z,13.38
2022-10-28T02:11:25.388Z,13.38
2022-10-28T02:12:00.207Z,13.38
2022-10-28T02:12:32.156Z,13.38
2022-10-28T02:13:04.175Z,13.38
2022-10-28T02:13:36.156Z,13.38
2022-10-28T02:14:08.542Z,13.38
2022-10-28T02:14:40.122Z,13.38
2022-10-28T02:15:03.214Z,13.38
2022-10-28T02:15:25.365Z,13.38
2022-10-28T02:16:00.105Z,13.38
2022-10-28T02:16:32.091Z,13.38
2022-10-28T02:17:04.053Z,13.38
2022-10-28T02:17:36.182Z,13.38
2022-10-28T02:18:08.433Z,13.38
2022-10-28T02:18:40.086Z,13.38
2022-10-28T02:19:02.745Z,13.38
2022-10-28T02:19:25.035Z,13.38
2022-10-28T02:20:01.720Z,13.50
2022-10-28T02:20:31.951Z,13.50
2022-10-28T02:21:04.019Z,13.50
2022-10-28T02:21:36.139Z,13.50
2022-10-28T02:22:08.012Z,13.38
2022-10-28T02:22:39.994Z,13.38
2022-10-28T02:23:06.976Z,13.38
2022-10-28T02:23:26.916Z,13.38
2022-10-28T02:24:00.151Z,13.38
2022-10-28T02:24:48.317Z,13.38
2022-10-28T02:25:11.087Z,13.38
2022-10-28T02:25:33.623Z,13.38
2022-10-28T02:26:08.122Z,13.38
2022-10-28T02:26:40.311Z,13.27
2022-10-28T02:27:03.011Z,13.27
2022-10-28T02:27:25.366Z,13.27
2022-10-28T02:28:00.173Z,13.27
2022-10-28T02:28:32.060Z,13.27
2022-10-28T02:29:04.183Z,13.27
2022-10-28T02:29:36.176Z,13.27
2022-10-28T02:30:09.803Z,13.27
2022-10-28T02:30:40.155Z,13.27
2022-10-28T02:31:02.645Z,13.27
2022-10-28T02:31:25.356Z,13.27
2022-10-28T02:32:00.108Z,13.27
2022-10-28T02:32:32.359Z,13.27
2022-10-28T02:33:04.107Z,13.27
2022-10-28T02:33:36.152Z,13.27
2022-10-28T02:34:08.008Z,13.22
2022-10-28T02:34:40.145Z,13.22
2022-10-28T02:35:02.832Z,13.27
2022-10-28T02:35:25.162Z,13.27
2022-10-28T02:36:01.002Z,13.27
2022-10-28T02:36:32.189Z,13.27
2022-10-28T02:37:04.299Z,13.27
2022-10-28T02:37:39.465Z,13.50
2022-10-28T02:38:03.465Z,13.27
2022-10-28T02:38:36.268Z,13.50
2022-10-28T02:39:07.809Z,13.50
2022-10-28T02:39:44.018Z,13.50
2022-10-28T02:40:06.731Z,13.50
2022-10-28T02:40:29.314Z,13.50
2022-10-28T02:41:03.943Z,13.50
2022-10-28T02:41:36.205Z,13.50
2022-10-28T02:42:07.899Z,13.50
2022-10-28T02:42:39.986Z,13.50
2022-10-28T02:43:02.928Z,13.50
2022-10-28T02:43:25.053Z,13.50
2022-10-28T02:44:00.199Z,13.50
2022-10-28T02:44:32.208Z,13.50
2022-10-28T02:45:04.182Z,13.50
2022-10-28T02:45:36.191Z,13.38
2022-10-28T02:46:07.943Z,13.38
2022-10-28T02:46:39.989Z,13.38
2022-10-28T02:47:02.685Z,13.38
2022-10-28T02:47:25.025Z,13.38
2022-10-28T02:48:00.204Z,13.38
2022-10-28T02:48:31.947Z,13.38
2022-10-28T02:49:04.187Z,13.38
2022-10-28T02:49:36.317Z,13.38
2022-10-28T02:50:07.953Z,13.38
2022-10-28T02:50:40.329Z,13.38
2022-10-28T02:51:02.879Z,13.38
2022-10-28T02:51:25.425Z,13.38
2022-10-28T02:52:00.146Z,13.27
2022-10-28T02:52:32.184Z,13.27
2022-10-28T02:53:04.313Z,13.27
2022-10-28T02:53:36.185Z,13.27
2022-10-28T02:54:07.964Z,13.27
2022-10-28T02:54:40.093Z,13.27
2022-10-28T02:55:02.690Z,13.27
2022-10-28T02:55:25.080Z,13.27
2022-10-28T02:56:00.034Z,13.27
2022-10-28T02:56:32.044Z,13.27
2022-10-28T02:57:03.994Z,13.27
2022-10-28T02:57:36.252Z,13.27
2022-10-28T02:58:08.152Z,13.27
2022-10-28T02:58:40.130Z,13.27
2022-10-28T02:59:02.852Z,13.22
2022-10-28T02:59:25.268Z,13.22
2022-10-28T02:59:59.942Z,13.22
2022-10-28T03:00:32.127Z,13.22
2022-10-28T03:01:04.136Z,13.22
2022-10-28T03:01:36.333Z,13.22
2022-10-28T03:02:08.064Z,13.22
2022-10-28T03:02:40.112Z,13.22
2022-10-28T03:03:02.831Z,13.22
2022-10-28T03:03:25.172Z,13.22
2022-10-28T03:04:00.109Z,13.22
2022-10-28T03:04:31.920Z,13.22
2022-10-28T03:05:04.001Z,13.22
2022-10-28T03:05:35.979Z,13.22
2022-10-28T03:06:07.942Z,13.22
2022-10-28T03:06:40.158Z,13.11
2022-10-28T03:07:03.260Z,13.11
2022-10-28T03:07:26.132Z,13.11
2022-10-28T03:08:00.475Z,13.11
2022-10-28T03:08:31.878Z,13.11
2022-10-28T03:09:04.086Z,13.11
2022-10-28T03:09:36.282Z,13.11
2022-10-28T03:10:08.049Z,13.11
2022-10-28T03:10:39.989Z,13.00
2022-10-28T03:11:03.017Z,13.00
2022-10-28T03:11:25.517Z,13.00
2022-10-28T03:12:00.052Z,13.00
2022-10-28T03:12:32.169Z,13.00
2022-10-28T03:13:04.150Z,13.00
2022-10-28T03:13:36.312Z,13.00
2022-10-28T03:14:10.673Z,12.88
2022-10-28T03:14:40.099Z,13.00
2022-10-28T03:15:03.150Z,13.00
2022-10-28T03:15:25.286Z,13.00
2022-10-28T03:16:00.005Z,13.00
2022-10-28T03:16:32.028Z,13.00
2022-10-28T03:17:03.998Z,13.00
2022-10-28T03:17:36.184Z,13.00
2022-10-28T03:18:08.075Z,12.88
2022-10-28T03:18:40.025Z,12.88
2022-10-28T03:19:02.913Z,12.88
2022-10-28T03:19:25.184Z,12.88
2022-10-28T03:20:00.390Z,12.88
2022-10-28T03:20:32.042Z,12.88
2022-10-28T03:21:04.028Z,12.77
2022-10-28T03:21:36.079Z,12.77
2022-10-28T03:22:08.351Z,12.77
2022-10-28T03:22:39.882Z,12.77
2022-10-28T03:23:02.938Z,12.77
2022-10-28T03:23:25.288Z,12.77
2022-10-28T03:24:00.241Z,12.88
2022-10-28T03:24:32.328Z,12.88
2022-10-28T03:25:04.301Z,13.00
2022-10-28T03:25:36.045Z,13.00
2022-10-28T03:26:08.261Z,13.00
2022-10-28T03:26:40.288Z,13.00
2022-10-28T03:27:02.870Z,13.00
2022-10-28T03:27:25.337Z,13.00
2022-10-28T03:28:00.102Z,13.00
2022-10-28T03:28:32.073Z,13.00
2022-10-28T03:29:04.311Z,13.00
2022-10-28T03:29:36.461Z,13.00
2022-10-28T03:30:08.346Z,13.00
2022-10-28T03:30:40.128Z,13.00
2022-10-28T03:31:03.728Z,13.00
2022-10-28T03:31:25.923Z,13.00
2022-10-28T03:32:00.021Z,13.00
2022-10-28T03:32:31.984Z,13.00
2022-10-28T03:33:04.133Z,12.88
2022-10-28T03:33:36.165Z,12.88
2022-10-28T03:34:07.985Z,12.88
2022-10-28T03:34:40.083Z,12.88
2022-10-28T03:35:02.898Z,12.88
2022-10-28T03:35:25.321Z,12.88
2022-10-28T03:36:00.029Z,12.88
2022-10-28T03:36:31.893Z,12.77
2022-10-28T03:37:04.011Z,12.77
2022-10-28T03:37:36.005Z,12.88
2022-10-28T03:38:08.106Z,13.00
2022-10-28T03:38:39.931Z,13.00
2022-10-28T03:39:03.300Z,13.00
2022-10-28T03:39:25.692Z,13.00
2022-10-28T03:40:00.182Z,13.00
2022-10-28T03:40:32.112Z,13.00
2022-10-28T03:41:04.436Z,13.00
2022-10-28T03:41:36.399Z,13.00
2022-10-28T03:42:08.048Z,13.00
2022-10-28T03:42:41.176Z,13.00
2022-10-28T03:43:02.717Z,13.00
2022-10-28T03:43:25.351Z,13.00
2022-10-28T03:43:59.946Z,13.00
2022-10-28T03:44:32.015Z,13.00
2022-10-28T03:45:04.138Z,12.88
2022-10-28T03:45:36.194Z,12.88
2022-10-28T03:46:08.033Z,12.88
2022-10-28T03:46:40.101Z,12.88
2022-10-28T03:47:03.253Z,12.88
2022-10-28T03:47:25.386Z,12.88
2022-10-28T03:47:59.929Z,12.88
2022-10-28T03:48:32.249Z,12.88
2022-10-28T03:49:03.899Z,12.88
2022-10-28T03:49:36.264Z,12.88
2022-10-28T03:50:08.350Z,12.88
2022-10-28T03:50:40.159Z,12.88
2022-10-28T03:51:02.998Z,12.88
2022-10-28T03:51:25.343Z,12.88
2022-10-28T03:52:00.164Z,12.88
2022-10-28T03:52:31.943Z,12.88
2022-10-28T03:53:04.195Z,12.88
2022-10-28T03:53:36.089Z,12.88
2022-10-28T03:54:08.243Z,12.88
2022-10-28T03:54:40.143Z,12.77
2022-10-28T03:55:03.089Z,12.77
2022-10-28T03:55:25.505Z,12.77
2022-10-28T03:55:59.995Z,12.77
2022-10-28T03:56:31.986Z,12.88
2022-10-28T03:57:05.530Z,12.88
2022-10-28T03:57:36.019Z,12.88
2022-10-28T03:58:07.946Z,12.88
2022-10-28T03:58:41.308Z,12.88
2022-10-28T03:59:02.936Z,12.88
2022-10-28T03:59:25.396Z,12.88
2022-10-28T03:59:59.949Z,12.88
2022-10-28T04:00:31.916Z,12.88
2022-10-28T04:01:04.140Z,12.88
2022-10-28T04:01:36.362Z,12.88
2022-10-28T04:02:08.073Z,12.88
2022-10-28T04:02:40.407Z,12.88
2022-10-28T04:03:03.003Z,12.88
2022-10-28T04:03:25.411Z,12.88
2022-10-28T04:03:59.869Z,12.88
2022-10-28T04:04:31.945Z,12.88
2022-10-28T04:05:04.030Z,12.88
2022-10-28T04:05:36.245Z,12.88
2022-10-28T04:06:08.006Z,12.88
2022-10-28T04:06:39.974Z,12.88
2022-10-28T04:07:03.016Z,12.88
2022-10-28T04:07:25.200Z,12.88
2022-10-28T04:07:59.977Z,12.88
2022-10-28T04:08:31.826Z,12.88
2022-10-28T04:09:03.982Z,12.88
2022-10-28T04:09:36.093Z,12.88
2022-10-28T04:10:07.979Z,13.00
2022-10-28T04:10:42.637Z,13.00
2022-10-28T04:11:02.879Z,13.00
2022-10-28T04:11:25.240Z,12.88
2022-10-28T04:12:00.041Z,12.88
2022-10-28T04:12:33.386Z,12.88
2022-10-28T04:13:04.211Z,12.88
2022-10-28T04:13:36.077Z,12.88
2022-10-28T04:14:07.917Z,12.88
2022-10-28T04:14:39.856Z,12.88
2022-10-28T04:15:02.718Z,12.88
2022-10-28T04:15:25.045Z,12.88
2022-10-28T04:15:59.963Z,12.88
2022-10-28T04:16:32.113Z,12.88
2022-10-28T04:17:03.850Z,12.88
2022-10-28T04:17:36.348Z,12.88
2022-10-28T04:18:07.878Z,12.88
2022-10-28T04:18:40.235Z,12.88
2022-10-28T04:19:03.285Z,12.88
2022-10-28T04:19:25.822Z,12.88
2022-10-28T04:20:00.103Z,12.88
2022-10-28T04:20:31.945Z,12.88
2022-10-28T04:21:03.916Z,12.88
2022-10-28T04:21:36.047Z,12.88
2022-10-28T04:22:08.367Z,12.88
2022-10-28T04:22:40.007Z,12.88
2022-10-28T04:23:03.413Z,12.88
2022-10-28T04:23:25.119Z,12.88
2022-10-28T04:23:59.920Z,12.88
2022-10-28T04:24:31.995Z,12.88
2022-10-28T04:25:05.923Z,12.88
2022-10-28T04:25:35.944Z,12.88
2022-10-28T04:26:07.951Z,12.77
2022-10-28T04:26:39.970Z,12.77
2022-10-28T04:27:02.738Z,12.77
2022-10-28T04:27:24.937Z,12.88
2022-10-28T04:28:00.186Z,12.88
2022-10-28T04:28:31.931Z,12.88
2022-10-28T04:29:04.185Z,12.88
2022-10-28T04:29:36.114Z,12.88
2022-10-28T04:30:08.646Z,13.00
2022-10-28T04:30:39.997Z,13.00
2022-10-28T04:31:02.855Z,13.00
2022-10-28T04:31:25.450Z,13.00
2022-10-28T04:31:59.865Z,13.00
2022-10-28T04:32:32.242Z,13.00
2022-10-28T04:33:03.879Z,12.88
2022-10-28T04:33:36.082Z,12.88
2022-10-28T04:34:07.806Z,12.88
2022-10-28T04:34:39.958Z,12.88
2022-10-28T04:35:03.107Z,12.88
2022-10-28T04:35:25.244Z,12.88
2022-10-28T04:35:59.945Z,12.88
2022-10-28T04:36:31.965Z,12.88
2022-10-28T04:37:03.974Z,12.88
2022-10-28T04:37:36.110Z,12.88
2022-10-28T04:38:08.044Z,12.88
2022-10-28T04:38:40.606Z,12.88
2022-10-28T04:39:02.804Z,12.88
2022-10-28T04:39:25.652Z,12.88
2022-10-28T04:40:01.330Z,12.88
2022-10-28T04:40:31.939Z,12.88
2022-10-28T04:41:04.114Z,12.88
2022-10-28T04:41:36.413Z,12.88
2022-10-28T04:42:08.118Z,12.88
2022-10-28T04:42:40.016Z,12.88
2022-10-28T04:43:02.866Z,12.88
2022-10-28T04:43:25.186Z,12.88
2022-10-28T04:44:00.168Z,12.88
2022-10-28T04:44:31.992Z,12.88
2022-10-28T04:45:04.073Z,12.88
2022-10-28T04:45:36.119Z,12.88
2022-10-28T04:46:08.016Z,12.88
2022-10-28T04:46:39.886Z,12.88
2022-10-28T04:47:02.644Z,12.88
2022-10-28T04:47:24.899Z,12.88
2022-10-28T04:48:00.225Z,12.88
2022-10-28T04:48:32.227Z,12.88
2022-10-28T04:49:03.965Z,12.88
2022-10-28T04:49:38.835Z,12.88
2022-10-28T04:50:07.830Z,12.88
2022-10-28T04:50:39.974Z,12.88
2022-10-28T04:51:02.934Z,12.88
2022-10-28T04:51:26.612Z,12.77
2022-10-28T04:52:00.251Z,12.77
2022-10-28T04:52:32.071Z,12.77
2022-10-28T04:53:03.861Z,12.77
2022-10-28T04:53:36.100Z,12.77
2022-10-28T04:54:08.247Z,12.77
2022-10-28T04:54:40.029Z,12.77
2022-10-28T04:55:02.744Z,12.77
2022-10-28T04:55:25.145Z,12.77
2022-10-28T04:55:59.964Z,12.77
2022-10-28T04:56:31.985Z,12.77
2022-10-28T04:57:04.175Z,12.77
2022-10-28T04:57:35.830Z,12.77
2022-10-28T04:58:07.926Z,12.72
2022-10-28T04:58:39.817Z,12.72
2022-10-28T04:59:02.717Z,12.72
2022-10-28T04:59:25.034Z,12.72
2022-10-28T04:59:59.871Z,12.77
2022-10-28T05:00:32.015Z,12.77
2022-10-28T05:01:04.017Z,13.00
2022-10-28T05:01:36.070Z,12.77
2022-10-28T05:02:07.979Z,12.88
2022-10-28T05:02:45.138Z,13.11
2022-10-28T05:03:02.644Z,12.88
2022-10-28T05:03:24.906Z,12.88
2022-10-28T05:03:59.850Z,12.88
2022-10-28T05:04:32.193Z,12.88
2022-10-28T05:05:03.975Z,12.88
2022-10-28T05:05:36.079Z,12.88
2022-10-28T05:06:07.755Z,12.88
2022-10-28T05:06:39.917Z,12.88
2022-10-28T05:07:02.800Z,12.88
2022-10-28T05:07:25.125Z,12.77
2022-10-28T05:07:59.987Z,12.77
2022-10-28T05:08:31.917Z,12.77
2022-10-28T05:09:03.947Z,12.77
2022-10-28T05:09:36.108Z,12.77
2022-10-28T05:10:07.952Z,12.77
2022-10-28T05:10:39.874Z,12.77
2022-10-28T05:11:02.974Z,12.77
2022-10-28T05:11:25.483Z,12.77
2022-10-28T05:11:59.922Z,12.77
2022-10-28T05:12:32.162Z,12.77
2022-10-28T05:13:03.867Z,12.72
2022-10-28T05:13:35.879Z,12.72
2022-10-28T05:14:07.969Z,12.72
2022-10-28T05:14:39.874Z,12.61
2022-10-28T05:15:03.114Z,12.61
2022-10-28T05:15:25.204Z,12.61
2022-10-28T05:16:00.049Z,12.61
2022-10-28T05:16:31.831Z,12.50
2022-10-28T05:17:04.011Z,12.50
2022-10-28T05:17:36.350Z,12.50
2022-10-28T05:18:07.981Z,12.61
2022-10-28T05:18:39.838Z,12.61
2022-10-28T05:19:02.603Z,12.61
2022-10-28T05:19:25.112Z,12.61
2022-10-28T05:20:02.464Z,12.61
2022-10-28T05:20:32.210Z,12.61
2022-10-28T05:21:03.944Z,12.61
2022-10-28T05:21:36.273Z,12.61
2022-10-28T05:22:07.798Z,12.50
2022-10-28T05:22:40.055Z,12.50
2022-10-28T05:23:03.292Z,12.50
2022-10-28T05:23:28.544Z,12.50
2022-10-28T05:24:00.006Z,12.50
2022-10-28T05:24:31.963Z,12.50
2022-10-28T05:25:03.848Z,12.50
2022-10-28T05:25:36.403Z,12.50
2022-10-28T05:26:07.902Z,12.38
2022-10-28T05:26:40.057Z,12.38
2022-10-28T05:27:03.073Z,12.38
2022-10-28T05:27:25.620Z,12.38
2022-10-28T05:27:59.921Z,12.27
2022-10-28T05:28:31.806Z,12.27
2022-10-28T05:29:04.075Z,12.27
2022-10-28T05:29:36.060Z,12.22
2022-10-28T05:30:08.001Z,12.22
2022-10-28T05:30:39.910Z,12.22
2022-10-28T05:31:02.856Z,12.11
2022-10-28T05:31:25.445Z,12.11
2022-10-28T05:31:59.918Z,12.27
2022-10-28T05:32:31.965Z,12.27
2022-10-28T05:33:03.930Z,12.27
2022-10-28T05:33:36.027Z,12.38
2022-10-28T05:34:07.802Z,12.50
2022-10-28T05:34:40.038Z,12.50
2022-10-28T05:35:02.748Z,12.50
2022-10-28T05:35:25.007Z,12.50
2022-10-28T05:35:59.759Z,12.50
2022-10-28T05:36:32.289Z,12.38
2022-10-28T05:37:03.848Z,12.38
2022-10-28T05:37:36.077Z,12.38
2022-10-28T05:38:07.919Z,12.38
2022-10-28T05:38:39.902Z,12.38
2022-10-28T05:39:02.828Z,12.38
2022-10-28T05:39:25.142Z,12.38
2022-10-28T05:40:00.052Z,12.38
2022-10-28T05:40:31.905Z,12.27
2022-10-28T05:41:04.179Z,12.27
2022-10-28T05:41:38.761Z,12.22
2022-10-28T05:42:08.061Z,12.22
2022-10-28T05:42:39.856Z,12.22
2022-10-28T05:43:02.719Z,12.11
2022-10-28T05:43:25.494Z,12.11
2022-10-28T05:43:59.918Z,12.11
2022-10-28T05:44:31.833Z,12.11
2022-10-28T05:45:03.946Z,12.11
2022-10-28T05:45:37.369Z,12.11
2022-10-28T05:46:08.634Z,12.22
2022-10-28T05:46:39.812Z,12.22
2022-10-28T05:47:03.152Z,12.22
2022-10-28T05:47:24.970Z,12.22
2022-10-28T05:48:00.405Z,12.11
2022-10-28T05:48:31.965Z,12.11
2022-10-28T05:49:04.156Z,12.00
2022-10-28T05:49:36.042Z,12.00
2022-10-28T05:50:07.921Z,12.00
2022-10-28T05:50:39.889Z,11.88
2022-10-28T05:51:02.854Z,11.88
2022-10-28T05:51:24.856Z,11.88
2022-10-28T05:52:01.530Z,11.88
2022-10-28T05:52:31.875Z,11.77
2022-10-28T05:53:04.070Z,11.77
2022-10-28T05:53:36.182Z,11.72
2022-10-28T05:54:08.100Z,11.72
2022-10-28T05:54:40.048Z,11.72
2022-10-28T05:55:03.228Z,11.72
2022-10-28T05:55:25.801Z,11.72
2022-10-28T05:55:59.873Z,11.72
2022-10-28T05:56:31.963Z,11.72
2022-10-28T05:57:04.059Z,11.72
2022-10-28T05:57:35.938Z,11.72
2022-10-28T05:58:08.163Z,11.61
2022-10-28T05:58:40.124Z,11.61
2022-10-28T05:59:02.783Z,11.77
2022-10-28T05:59:25.099Z,11.61
2022-10-28T05:59:59.956Z,11.61
2022-10-28T06:00:33.441Z,11.61
2022-10-28T06:01:03.999Z,11.50
2022-10-28T06:01:36.071Z,11.72
2022-10-28T06:02:08.024Z,11.72
2022-10-28T06:02:40.035Z,11.72
2022-10-28T06:03:04.414Z,11.72
2022-10-28T06:03:30.151Z,11.72
2022-10-28T06:03:59.973Z,11.72
2022-10-28T06:04:31.913Z,11.72
2022-10-28T06:05:04.012Z,11.72
2022-10-28T06:05:35.806Z,11.72
2022-10-28T06:06:07.972Z,11.72
2022-10-28T06:06:40.000Z,11.72
2022-10-28T06:07:02.921Z,11.72
2022-10-28T06:07:25.183Z,11.72
2022-10-28T06:07:59.910Z,11.72
2022-10-28T06:08:32.234Z,11.77
2022-10-28T06:09:03.886Z,11.77
2022-10-28T06:09:36.261Z,11.77
2022-10-28T06:10:07.829Z,11.77
2022-10-28T06:10:40.020Z,11.77
2022-10-28T06:11:01.366Z,11.77
2022-10-28T06:11:23.878Z,11.77
2022-10-28T06:11:58.581Z,11.77
2022-10-28T06:12:30.547Z,11.77
2022-10-28T06:13:02.466Z,11.77
2022-10-28T06:13:34.658Z,11.77
2022-10-28T06:14:06.509Z,11.72
2022-10-28T06:14:38.578Z,11.72
2022-10-28T06:15:01.468Z,11.72
2022-10-28T06:15:23.670Z,11.72
2022-10-28T06:15:58.468Z,11.72
2022-10-28T06:16:30.389Z,11.72
2022-10-28T06:17:02.465Z,11.72
2022-10-28T06:17:34.374Z,11.72
2022-10-28T06:18:06.947Z,11.72
2022-10-28T06:18:38.435Z,11.61
2022-10-28T06:19:01.500Z,11.61
2022-10-28T06:19:23.499Z,11.61
2022-10-28T06:20:00.042Z,11.61
2022-10-28T06:20:30.431Z,11.61
2022-10-28T06:21:02.707Z,11.61
2022-10-28T06:21:34.674Z,11.38
2022-10-28T06:22:06.563Z,11.38
2022-10-28T06:22:38.383Z,11.27
2022-10-28T06:23:01.091Z,11.27
2022-10-28T06:23:23.346Z,11.27
2022-10-28T06:23:58.577Z,11.27
2022-10-28T06:24:30.474Z,11.27
2022-10-28T06:25:02.408Z,11.27
2022-10-28T06:25:34.438Z,11.27
2022-10-28T06:26:06.434Z,11.27
2022-10-28T06:26:38.507Z,11.27